createdAt,value
2018-03-25T00:01:37.089Z,15.93
2018-03-25T00:04:11.544Z,15.02
2018-03-25T00:06:46.848Z,17.67
2018-03-25T00:09:21.328Z,14.07
2018-03-25T00:11:55.653Z,15.35
2018-03-25T00:14:30.428Z,15.00
2018-03-25T00:17:04.736Z,12.85
2018-03-25T00:19:41.118Z,14.02
2018-03-25T00:22:15.404Z,13.00
2018-03-25T00:24:50.163Z,13.60
2018-03-25T00:27:24.716Z,14.27
2018-03-25T00:29:59.210Z,14.82
2018-03-25T00:32:33.749Z,18.60
2018-03-25T00:35:08.448Z,15.55
2018-03-25T00:37:42.933Z,15.93
2018-03-25T00:40:17.712Z,16.75
2018-03-25T00:42:52.230Z,17.23
2018-03-25T00:45:27.376Z,22.05
2018-03-25T00:48:01.884Z,15.77
2018-03-25T00:50:37.246Z,18.05
2018-03-25T00:53:11.716Z,17.17
2018-03-25T00:55:46.288Z,18.77
2018-03-25T00:58:20.829Z,16.20
2018-03-25T01:00:55.350Z,16.37
2018-03-25T01:03:30.402Z,15.50
2018-03-25T01:06:04.992Z,17.52
2018-03-25T01:08:40.124Z,16.92
2018-03-25T01:11:14.656Z,16.48
2018-03-25T01:13:49.436Z,17.95
2018-03-25T01:16:24.147Z,14.75
2018-03-25T01:18:58.568Z,17.55
2018-03-25T01:21:33.361Z,15.57
2018-03-25T01:24:07.904Z,15.20
2018-03-25T01:26:42.561Z,18.25
2018-03-25T01:29:17.002Z,14.45
2018-03-25T01:31:51.667Z,19.27
2018-03-25T01:34:26.532Z,14.13
2018-03-25T01:37:00.916Z,18.75
2018-03-25T01:39:35.349Z,20.83
2018-03-25T01:42:10.164Z,22.37
2018-03-25T01:44:44.781Z,18.10
2018-03-25T01:47:19.408Z,18.83
2018-03-25T01:49:54.781Z,15.80
2018-03-25T01:52:29.304Z,18.55
2018-03-25T01:55:03.712Z,14.98
2018-03-25T01:57:38.336Z,14.90
2018-03-25T02:00:12.871Z,14.60
2018-03-25T02:02:47.372Z,16.60
2018-03-25T02:05:21.810Z,16.05
2018-03-25T02:07:56.316Z,18.80
2018-03-25T02:10:31.044Z,22.85
2018-03-25T02:13:05.325Z,20.45
2018-03-25T02:15:40.138Z,17.23
2018-03-25T02:18:14.710Z,16.33
2018-03-25T02:20:49.346Z,20.55
2018-03-25T02:23:23.843Z,19.77
2018-03-25T02:25:59.002Z,16.40
2018-03-25T02:28:33.504Z,16.52
2018-03-25T02:31:08.052Z,17.85
2018-03-25T02:33:43.500Z,22.65
2018-03-25T02:36:18.329Z,18.62
2018-03-25T02:38:52.902Z,17.55
2018-03-25T02:41:27.576Z,18.12
2018-03-25T02:44:02.135Z,16.65
2018-03-25T02:46:36.633Z,18.92
2018-03-25T02:49:11.582Z,19.62
2018-03-25T02:51:46.317Z,20.30
2018-03-25T02:54:20.751Z,19.58
2018-03-25T02:56:55.540Z,16.48
2018-03-25T02:59:30.883Z,18.25
2018-03-25T03:02:05.345Z,18.17
2018-03-25T03:04:39.783Z,17.60
2018-03-25T03:07:14.450Z,16.12
2018-03-25T03:09:48.900Z,18.73
2018-03-25T03:12:24.868Z,18.23
2018-03-25T03:14:59.556Z,20.33
2018-03-25T03:17:34.146Z,17.87
2018-03-25T03:20:08.600Z,18.90
2018-03-25T03:22:43.204Z,20.08
2018-03-25T03:25:17.967Z,17.05
2018-03-25T03:27:52.410Z,25.05
2018-03-25T03:30:27.002Z,20.30
2018-03-25T03:33:01.697Z,18.87
2018-03-25T03:35:36.256Z,18.73
2018-03-25T03:38:10.967Z,20.15
2018-03-25T03:40:47.149Z,17.50
2018-03-25T03:43:21.688Z,19.27
2018-03-25T03:45:56.276Z,19.02
2018-03-25T03:48:30.633Z,19.67
2018-03-25T03:51:05.244Z,17.80
2018-03-25T03:53:39.786Z,19.92
2018-03-25T03:56:14.289Z,18.30
2018-03-25T03:58:48.613Z,22.37
2018-03-25T04:01:23.145Z,23.48
2018-03-25T04:03:58.523Z,18.77
2018-03-25T04:06:33.024Z,20.45
2018-03-25T04:09:07.433Z,21.50
2018-03-25T04:11:42.037Z,22.27
2018-03-25T04:14:16.441Z,20.45
2018-03-25T04:16:51.909Z,18.42
2018-03-25T04:19:26.342Z,18.87
2018-03-25T04:22:00.949Z,19.30
2018-03-25T04:24:35.236Z,18.98
2018-03-25T04:27:09.792Z,20.05
2018-03-25T04:29:44.377Z,21.85
2018-03-25T04:32:19.061Z,20.33
2018-03-25T04:34:53.461Z,21.35
2018-03-25T04:37:28.088Z,18.85
2018-03-25T04:40:02.364Z,20.50
2018-03-25T04:42:37.552Z,22.27
2018-03-25T04:45:11.848Z,18.23
2018-03-25T04:47:46.384Z,18.55
2018-03-25T04:50:22.045Z,18.83
2018-03-25T04:52:56.344Z,19.62
2018-03-25T04:55:30.876Z,20.42
2018-03-25T04:58:06.220Z,20.95
2018-03-25T05:00:40.952Z,19.65
2018-03-25T05:03:15.345Z,18.98
2018-03-25T05:05:49.712Z,18.90
2018-03-25T05:08:24.114Z,22.27
2018-03-25T05:10:58.667Z,20.35
2018-03-25T05:13:33.104Z,18.98
2018-03-25T05:16:07.681Z,19.00
2018-03-25T05:18:43.025Z,19.77
2018-03-25T05:21:17.543Z,21.15
2018-03-25T05:23:52.497Z,21.02
2018-03-25T05:26:27.109Z,21.00
2018-03-25T05:29:01.761Z,22.45
2018-03-25T05:31:36.569Z,20.85
2018-03-25T05:34:11.027Z,19.87
2018-03-25T05:36:46.614Z,21.95
2018-03-25T05:39:21.074Z,20.50
2018-03-25T05:41:55.585Z,21.50
2018-03-25T05:44:29.884Z,21.50
2018-03-25T05:47:04.623Z,21.10
2018-03-25T05:49:39.136Z,22.30
2018-03-25T05:52:13.876Z,22.87
2018-03-25T05:54:49.276Z,19.83
2018-03-25T05:57:24.764Z,21.25
2018-03-25T05:59:59.260Z,21.30
2018-03-25T06:02:33.837Z,22.65
2018-03-25T06:05:08.292Z,20.88
2018-03-25T06:07:43.673Z,20.83
2018-03-25T06:10:18.557Z,20.52
2018-03-25T06:12:53.954Z,21.65
2018-03-25T06:15:28.400Z,22.20
2018-03-25T06:18:02.992Z,21.12
2018-03-25T06:20:38.167Z,23.58
2018-03-25T06:23:12.669Z,22.15
2018-03-25T06:25:48.077Z,21.80
2018-03-25T06:28:23.036Z,21.05
2018-03-25T06:30:57.612Z,21.70
2018-03-25T06:33:33.419Z,21.10
2018-03-25T06:36:07.997Z,20.77
2018-03-25T06:38:43.510Z,22.08
2018-03-25T06:41:17.952Z,21.48
2018-03-25T06:43:52.321Z,22.15
2018-03-25T06:46:26.816Z,21.73
2018-03-25T06:49:01.178Z,21.52
2018-03-25T06:51:35.668Z,23.10
2018-03-25T06:54:10.402Z,21.23
2018-03-25T06:56:44.843Z,20.98
2018-03-25T06:59:19.464Z,22.08
2018-03-25T07:01:53.788Z,19.83
2018-03-25T07:04:28.512Z,22.73
2018-03-25T07:07:02.916Z,21.58
2018-03-25T07:09:37.560Z,21.95
2018-03-25T07:12:12.022Z,20.98
2018-03-25T07:14:46.615Z,22.05
2018-03-25T07:17:21.045Z,23.20
2018-03-25T07:19:55.648Z,22.00
2018-03-25T07:22:30.190Z,22.25
2018-03-25T07:25:04.990Z,22.30
2018-03-25T07:27:39.759Z,22.55
2018-03-25T07:30:14.200Z,21.50
2018-03-25T07:32:49.487Z,23.17
2018-03-25T07:35:24.033Z,22.05
2018-03-25T07:37:58.667Z,22.90
2018-03-25T07:40:33.277Z,23.90
2018-03-25T07:43:08.741Z,20.62
2018-03-25T07:45:44.567Z,20.40
2018-03-25T07:48:19.202Z,21.12
2018-03-25T07:50:53.627Z,19.85
2018-03-25T07:53:28.447Z,20.83
2018-03-25T07:56:03.036Z,20.23
2018-03-25T07:58:37.700Z,20.67
2018-03-25T08:01:12.170Z,21.37
2018-03-25T08:03:46.954Z,20.10
2018-03-25T08:06:22.193Z,19.27
2018-03-25T08:08:57.230Z,20.65
2018-03-25T08:11:31.865Z,20.27
2018-03-25T08:14:06.252Z,19.77
2018-03-25T08:16:40.912Z,18.30
2018-03-25T08:19:16.349Z,20.02
2018-03-25T08:21:51.794Z,19.33
2018-03-25T08:24:26.180Z,19.35
2018-03-25T08:27:00.634Z,19.35
2018-03-25T08:29:35.972Z,18.17
2018-03-25T08:32:10.916Z,19.48
2018-03-25T08:34:45.335Z,19.60
2018-03-25T08:37:19.756Z,18.00
2018-03-25T08:39:54.312Z,18.98
2018-03-25T08:42:28.796Z,21.20
2018-03-25T08:45:03.642Z,19.10
2018-03-25T08:47:38.132Z,19.40
2018-03-25T08:50:12.578Z,18.17
2018-03-25T08:52:47.126Z,17.15
2018-03-25T08:55:21.825Z,17.67
2018-03-25T08:57:56.420Z,18.40
2018-03-25T09:00:31.689Z,16.98
2018-03-25T09:03:06.181Z,19.42
2018-03-25T09:05:41.840Z,17.48
2018-03-25T09:08:16.294Z,20.00
2018-03-25T09:10:51.832Z,19.73
2018-03-25T09:13:26.281Z,18.52
2018-03-25T09:16:01.904Z,18.67
2018-03-25T09:18:36.193Z,16.73
2018-03-25T09:21:10.748Z,16.67
2018-03-25T09:23:45.380Z,16.80
2018-03-25T09:26:19.824Z,15.65
2018-03-25T09:28:54.265Z,16.05
2018-03-25T09:31:28.827Z,15.50
2018-03-25T09:34:03.280Z,15.85
2018-03-25T09:36:37.887Z,14.73
2018-03-25T09:39:12.496Z,14.80
2018-03-25T09:41:47.139Z,15.32
2018-03-25T09:44:21.716Z,15.23
2018-03-25T09:46:56.215Z,14.70
2018-03-25T09:49:30.809Z,14.00
2018-03-25T09:52:05.249Z,13.68
2018-03-25T09:54:39.847Z,12.88
2018-03-25T09:57:14.488Z,13.80
2018-03-25T09:59:49.841Z,12.95
2018-03-25T10:02:27.222Z,12.60
2018-03-25T10:05:01.806Z,13.60
2018-03-25T10:07:36.483Z,12.50
2018-03-25T10:10:11.069Z,13.82
2018-03-25T10:12:45.856Z,18.27
2018-03-25T10:15:20.336Z,15.63
2018-03-25T10:17:54.864Z,15.65
2018-03-25T10:20:29.495Z,14.32
2018-03-25T10:23:03.938Z,14.25
2018-03-25T10:25:39.463Z,13.50
2018-03-25T10:28:14.177Z,14.27
2018-03-25T10:30:48.742Z,13.73
2018-03-25T10:33:23.440Z,12.32
2018-03-25T10:35:58.425Z,12.75
2018-03-25T10:38:32.984Z,13.38
2018-03-25T10:41:07.346Z,13.60
2018-03-25T10:43:43.706Z,13.70
2018-03-25T10:46:19.020Z,15.10
2018-03-25T10:48:54.475Z,13.60
2018-03-25T10:51:29.087Z,14.55
2018-03-25T10:54:03.743Z,13.30
2018-03-25T10:56:38.296Z,14.52
2018-03-25T10:59:13.816Z,13.55
2018-03-25T11:01:48.416Z,15.63
2018-03-25T11:04:23.056Z,21.17
2018-03-25T11:06:57.352Z,17.45
2018-03-25T11:09:32.184Z,15.60
2018-03-25T11:12:06.709Z,13.82
2018-03-25T11:14:41.211Z,15.30
2018-03-25T11:17:17.313Z,14.10
2018-03-25T11:19:52.090Z,16.58
2018-03-25T11:22:26.624Z,16.87
2018-03-25T11:25:01.268Z,14.45
2018-03-25T11:27:35.746Z,13.98
2018-03-25T11:30:10.547Z,14.60
2018-03-25T11:32:45.045Z,15.25
2018-03-25T11:35:19.589Z,12.98
2018-03-25T11:37:54.211Z,13.30
2018-03-25T11:40:30.685Z,14.20
2018-03-25T11:43:05.321Z,13.45
2018-03-25T11:45:40.285Z,14.63
2018-03-25T11:48:14.753Z,15.80
2018-03-25T11:50:50.740Z,13.77
2018-03-25T11:53:25.195Z,14.13
2018-03-25T11:55:59.830Z,14.45
2018-03-25T11:58:34.618Z,13.88
2018-03-25T12:01:10.243Z,14.40
2018-03-25T12:03:44.878Z,13.32
2018-03-25T12:06:19.517Z,15.15
2018-03-25T12:08:54.089Z,14.52
2018-03-25T12:11:28.524Z,13.68
2018-03-25T12:14:03.193Z,14.25
2018-03-25T12:16:37.796Z,13.35
2018-03-25T12:19:12.245Z,13.55
2018-03-25T12:21:47.622Z,16.87
2018-03-25T12:24:23.185Z,14.75
2018-03-25T12:26:58.141Z,14.57
2018-03-25T12:29:32.566Z,13.73
2018-03-25T12:32:07.285Z,13.55
2018-03-25T12:34:41.800Z,16.52
2018-03-25T12:37:16.209Z,13.75
2018-03-25T12:39:50.621Z,15.75
2018-03-25T12:42:25.930Z,14.48
2018-03-25T12:45:00.413Z,15.85
2018-03-25T12:47:35.048Z,13.98
2018-03-25T12:50:09.391Z,15.30
2018-03-25T12:52:43.882Z,15.85
2018-03-25T12:55:19.239Z,15.55
2018-03-25T12:57:53.956Z,15.02
2018-03-25T13:00:29.312Z,14.13
2018-03-25T13:03:04.026Z,14.38
2018-03-25T13:05:38.454Z,14.77
2018-03-25T13:08:13.070Z,14.52
2018-03-25T13:10:47.452Z,19.92
2018-03-25T13:13:22.940Z,23.98
2018-03-25T13:15:57.502Z,15.40
2018-03-25T13:18:32.180Z,14.87
2018-03-25T13:21:07.521Z,14.75
2018-03-25T13:23:42.261Z,14.35
2018-03-25T13:26:18.045Z,15.82
2018-03-25T13:28:52.768Z,14.98
2018-03-25T13:31:27.712Z,15.55
2018-03-25T13:34:03.634Z,15.57
2018-03-25T13:36:38.134Z,15.70
2018-03-25T13:39:12.672Z,15.68
2018-03-25T13:41:47.912Z,15.20
2018-03-25T13:44:23.445Z,15.98
2018-03-25T13:46:58.000Z,15.55
2018-03-25T13:49:32.419Z,15.73
2018-03-25T13:52:08.380Z,15.45
2018-03-25T13:54:42.924Z,15.90
2018-03-25T13:57:17.349Z,15.35
2018-03-25T13:59:52.783Z,15.10
2018-03-25T14:02:27.040Z,15.32
2018-03-25T14:05:01.727Z,17.05
2018-03-25T14:07:36.969Z,14.98
2018-03-25T14:10:11.558Z,15.35
2018-03-25T14:12:46.896Z,16.52
2018-03-25T14:15:21.444Z,16.10
2018-03-25T14:17:55.971Z,16.52
2018-03-25T14:20:31.085Z,15.63
2018-03-25T14:23:05.532Z,16.23
2018-03-25T14:25:40.137Z,17.48
2018-03-25T14:28:14.672Z,16.17
2018-03-25T14:30:50.037Z,16.20
2018-03-25T14:33:24.518Z,17.85
2018-03-25T14:35:59.050Z,16.17
2018-03-25T14:38:33.460Z,22.45
2018-03-25T14:41:08.296Z,16.70
2018-03-25T14:43:42.816Z,17.48
2018-03-25T14:46:17.296Z,17.37
2018-03-25T14:48:51.865Z,17.60
2018-03-25T14:51:26.384Z,17.00
2018-03-25T14:54:01.431Z,17.70
2018-03-25T14:56:36.084Z,17.95
2018-03-25T14:59:10.777Z,18.10
2018-03-25T15:01:46.324Z,18.20
2018-03-25T15:04:20.795Z,18.25
2018-03-25T15:06:55.376Z,17.90
2018-03-25T15:09:30.619Z,18.52
2018-03-25T15:12:05.205Z,17.00
2018-03-25T15:14:39.793Z,18.10
2018-03-25T15:17:14.288Z,20.42
2018-03-25T15:19:48.827Z,17.87
2018-03-25T15:22:23.213Z,19.98
2018-03-25T15:24:57.528Z,18.92
2018-03-25T15:27:32.176Z,18.73
2018-03-25T15:30:06.607Z,21.85
2018-03-25T15:32:41.021Z,18.58
2018-03-25T15:35:15.573Z,19.23
2018-03-25T15:37:50.283Z,20.98
2018-03-25T15:40:24.697Z,21.08
2018-03-25T15:42:59.313Z,17.33
2018-03-25T15:45:33.822Z,17.80
2018-03-25T15:48:08.358Z,19.30
2018-03-25T15:50:43.544Z,17.37
2018-03-25T15:53:18.221Z,16.67
2018-03-25T15:55:52.752Z,17.12
2018-03-25T15:58:28.293Z,18.20
2018-03-25T16:01:04.148Z,17.10
2018-03-25T16:03:38.831Z,19.02
2018-03-25T16:06:14.832Z,18.98
2018-03-25T16:08:49.474Z,20.10
2018-03-25T16:11:25.522Z,20.23
2018-03-25T16:14:00.198Z,19.00
2018-03-25T16:16:34.672Z,19.30
2018-03-25T16:19:09.597Z,19.35
2018-03-25T16:21:44.952Z,19.27
2018-03-25T16:24:20.283Z,18.62
2018-03-25T16:26:55.608Z,19.45
2018-03-25T16:29:31.122Z,17.55
2018-03-25T16:32:06.320Z,21.67
2018-03-25T16:34:40.857Z,20.00
2018-03-25T16:37:15.327Z,17.17
2018-03-25T16:39:49.889Z,17.75
2018-03-25T16:42:24.341Z,20.40
2018-03-25T16:44:58.941Z,18.58
2018-03-25T16:47:33.453Z,17.42
2018-03-25T16:50:07.997Z,18.25
2018-03-25T16:52:42.533Z,18.75
2018-03-25T16:55:18.022Z,19.65
2018-03-25T16:57:52.440Z,21.05
2018-03-25T17:00:27.784Z,22.60
2018-03-25T17:03:02.333Z,21.52
2018-03-25T17:05:37.068Z,19.20
2018-03-25T17:08:11.487Z,22.77
2018-03-25T17:10:45.949Z,20.10
2018-03-25T17:13:20.338Z,22.37
2018-03-25T17:15:55.462Z,27.33
2018-03-25T17:18:30.572Z,19.27
2018-03-25T17:21:05.226Z,21.98
2018-03-25T17:23:39.657Z,19.50
2018-03-25T17:26:14.515Z,19.50
2018-03-25T17:28:48.920Z,19.20
2018-03-25T17:31:23.358Z,18.85
2018-03-25T17:33:57.945Z,18.55
2018-03-25T17:36:33.317Z,19.50
2018-03-25T17:39:07.892Z,19.42
2018-03-25T17:41:44.107Z,19.52
2018-03-25T17:44:18.542Z,20.42
2018-03-25T17:46:53.338Z,20.10
2018-03-25T17:49:28.673Z,19.67
2018-03-25T17:52:03.675Z,21.20
2018-03-25T17:54:38.842Z,20.90
2018-03-25T17:57:13.468Z,24.92
2018-03-25T17:59:48.021Z,22.98
2018-03-25T18:02:22.785Z,23.38
2018-03-25T18:04:57.217Z,22.55
2018-03-25T18:07:32.435Z,24.15
2018-03-25T18:10:06.824Z,19.92
2018-03-25T18:12:41.442Z,21.02
2018-03-25T18:15:16.004Z,21.15
2018-03-25T18:17:50.676Z,20.90
2018-03-25T18:20:25.096Z,23.05
2018-03-25T18:23:01.540Z,20.05
2018-03-25T18:25:37.712Z,19.65
2018-03-25T18:28:13.625Z,22.25
2018-03-25T18:30:47.876Z,20.58
2018-03-25T18:33:22.568Z,20.92
2018-03-25T18:35:56.864Z,21.42
2018-03-25T18:38:32.398Z,24.15
2018-03-25T18:41:06.958Z,22.33
2018-03-25T18:43:41.444Z,23.77
2018-03-25T18:46:15.896Z,21.65
2018-03-25T18:48:50.493Z,22.23
2018-03-25T18:51:25.816Z,25.12
2018-03-25T18:54:01.173Z,28.60
2018-03-25T18:56:35.696Z,23.38
2018-03-25T18:59:10.422Z,26.15
2018-03-25T19:01:45.053Z,28.62
2018-03-25T19:04:19.948Z,28.58
2018-03-25T19:06:54.511Z,22.80
2018-03-25T19:09:29.129Z,23.52
2018-03-25T19:12:03.592Z,21.15
2018-03-25T19:14:38.176Z,20.55
2018-03-25T19:17:12.766Z,22.75
2018-03-25T19:19:47.432Z,22.77
2018-03-25T19:22:21.888Z,26.27
2018-03-25T19:24:56.388Z,28.10
2018-03-25T19:27:31.537Z,25.75
2018-03-25T19:30:06.247Z,22.25
2018-03-25T19:32:40.838Z,27.62
2018-03-25T19:35:16.339Z,39.10
2018-03-25T19:37:51.860Z,45.83
2018-03-25T19:40:27.005Z,25.80
2018-03-25T19:43:01.464Z,28.95
2018-03-25T19:45:36.125Z,28.42
2018-03-25T19:48:10.776Z,29.35
2018-03-25T19:50:45.401Z,29.77
2018-03-25T19:53:19.822Z,28.00
2018-03-25T19:55:54.373Z,36.15
2018-03-25T19:58:28.876Z,27.10
2018-03-25T20:01:03.493Z,33.47
2018-03-25T20:03:38.013Z,38.83
2018-03-25T20:06:13.468Z,28.25
2018-03-25T20:08:47.792Z,27.10
2018-03-25T20:11:22.322Z,28.38
2018-03-25T20:13:56.757Z,29.95
2018-03-25T20:16:31.574Z,28.90
2018-03-25T20:19:06.032Z,36.10
2018-03-25T20:21:41.623Z,35.03
2018-03-25T20:24:16.053Z,36.33
2018-03-25T20:26:50.772Z,32.03
2018-03-25T20:29:25.418Z,29.08
2018-03-25T20:32:00.226Z,35.38
2018-03-25T20:34:34.510Z,32.75
2018-03-25T20:37:09.064Z,29.73
2018-03-25T20:39:43.602Z,36.17
2018-03-25T20:42:18.228Z,33.55
2018-03-25T20:44:52.981Z,40.80
2018-03-25T20:47:27.787Z,34.63
2018-03-25T20:50:02.583Z,33.50
2018-03-25T20:52:37.333Z,36.95
2018-03-25T20:55:11.953Z,34.20
2018-03-25T20:57:47.518Z,34.45
2018-03-25T21:00:22.037Z,38.95
2018-03-25T21:02:56.791Z,33.92
2018-03-25T21:05:31.940Z,34.30
2018-03-25T21:08:06.549Z,45.63
2018-03-25T21:10:40.909Z,36.38
2018-03-25T21:13:15.496Z,40.28
2018-03-25T21:15:50.816Z,38.65
2018-03-25T21:18:25.345Z,38.58
2018-03-25T21:21:00.185Z,37.22
2018-03-25T21:23:35.817Z,39.38
2018-03-25T21:26:10.230Z,39.28
2018-03-25T21:28:45.576Z,44.60
2018-03-25T21:31:20.047Z,40.85
2018-03-25T21:33:54.630Z,37.70
2018-03-25T21:36:29.090Z,37.80
2018-03-25T21:39:03.645Z,40.95
2018-03-25T21:41:38.180Z,36.97
2018-03-25T21:44:12.773Z,39.20
2018-03-25T21:46:47.216Z,45.35
2018-03-25T21:49:21.764Z,38.50
2018-03-25T21:51:56.152Z,42.53
2018-03-25T21:54:30.554Z,38.47
2018-03-25T21:57:05.035Z,41.63
2018-03-25T21:59:40.301Z,41.60
2018-03-25T22:02:15.614Z,39.88
2018-03-25T22:04:50.012Z,40.42
2018-03-25T22:07:24.362Z,37.58
2018-03-25T22:09:58.825Z,36.97
2018-03-25T22:12:33.301Z,39.05
2018-03-25T22:15:07.740Z,39.80
2018-03-25T22:17:42.247Z,38.88
2018-03-25T22:20:16.737Z,40.35
2018-03-25T22:22:51.063Z,39.30
2018-03-25T22:25:26.317Z,34.33
2018-03-25T22:28:01.867Z,36.60
2018-03-25T22:30:37.284Z,36.97
2018-03-25T22:33:11.764Z,35.70
2018-03-25T22:35:46.205Z,34.72
2018-03-25T22:38:20.704Z,36.65
2018-03-25T22:40:55.130Z,34.58
2018-03-25T22:43:30.326Z,34.70
2018-03-25T22:46:04.780Z,35.70
2018-03-25T22:48:39.272Z,35.97
2018-03-25T22:51:13.764Z,35.90
2018-03-25T22:53:48.128Z,34.63
2018-03-25T22:56:23.380Z,36.40
2018-03-25T22:58:57.770Z,35.83
2018-03-25T23:01:32.361Z,36.70
2018-03-25T23:04:06.747Z,35.20
2018-03-25T23:06:41.335Z,36.53
2018-03-25T23:09:15.673Z,37.72
2018-03-25T23:11:50.310Z,40.00
2018-03-25T23:14:25.512Z,36.80
2018-03-25T23:17:00.005Z,38.05
2018-03-25T23:19:34.577Z,37.08
2018-03-25T23:22:09.049Z,38.72
2018-03-25T23:24:43.307Z,37.67
2018-03-25T23:27:18.048Z,40.15
2018-03-25T23:29:52.463Z,39.50
2018-03-25T23:32:26.953Z,40.50
2018-03-25T23:35:01.519Z,39.33
2018-03-25T23:37:36.005Z,40.15
2018-03-25T23:40:10.413Z,39.83
2018-03-25T23:42:45.200Z,40.05
2018-03-25T23:45:19.674Z,38.47
2018-03-25T23:47:54.447Z,40.95
2018-03-25T23:50:29.113Z,39.75
2018-03-25T23:53:03.903Z,40.97
2018-03-25T23:55:39.268Z,39.78
2018-03-25T23:58:14.592Z,41.55
